createdAt,value
2023-04-11T00:00:35.132Z,1.50
2023-04-11T00:05:50.051Z,1.40
2023-04-11T00:11:05.119Z,1.55
2023-04-11T00:16:20.156Z,1.23
2023-04-11T00:21:35.571Z,1.58
2023-04-11T00:26:51.069Z,1.33
2023-04-11T00:32:06.382Z,1.85
2023-04-11T00:37:22.147Z,1.17
2023-04-11T00:42:38.467Z,1.02
2023-04-11T00:47:54.110Z,1.52
2023-04-11T00:53:09.131Z,2.03
2023-04-11T00:58:24.065Z,1.50
2023-04-11T01:03:38.994Z,1.73
2023-04-11T01:08:54.171Z,1.92
2023-04-11T01:14:09.195Z,1.60
2023-04-11T01:19:24.074Z,2.42
2023-04-11T01:24:39.084Z,1.60
2023-04-11T01:29:54.050Z,2.03
2023-04-11T01:35:09.117Z,2.10
2023-04-11T01:40:24.115Z,1.85
2023-04-11T01:45:38.847Z,2.10
2023-04-11T01:50:54.130Z,2.15
2023-04-11T01:56:09.354Z,2.03
2023-04-11T02:01:25.156Z,2.10
2023-04-11T02:06:40.101Z,1.95
2023-04-11T02:11:55.078Z,2.10
2023-04-11T02:17:10.081Z,2.15
2023-04-11T02:22:25.164Z,1.88
2023-04-11T02:27:40.098Z,2.35
2023-04-11T02:32:55.457Z,2.30
2023-04-11T02:38:11.465Z,2.30
2023-04-11T02:43:27.452Z,2.13
2023-04-11T02:48:42.837Z,2.70
2023-04-11T02:53:58.119Z,2.17
2023-04-11T02:59:14.118Z,2.25
2023-04-11T03:04:29.185Z,2.65
2023-04-11T03:09:52.153Z,2.13
2023-04-11T03:15:07.083Z,1.92
2023-04-11T03:20:22.135Z,2.20
2023-04-11T03:25:37.130Z,1.95
2023-04-11T03:30:53.091Z,2.47
2023-04-11T03:36:07.925Z,1.83
2023-04-11T03:41:24.177Z,2.08
2023-04-11T03:46:40.165Z,2.75
2023-04-11T03:51:55.167Z,2.42
2023-04-11T03:57:11.141Z,4.43
2023-04-11T04:02:26.310Z,3.60
2023-04-11T04:07:47.509Z,3.83
2023-04-11T04:13:19.096Z,3.92
2023-04-11T04:18:43.101Z,4.28
2023-04-11T04:23:58.335Z,4.35
2023-04-11T04:29:36.089Z,4.28
2023-04-11T04:34:52.135Z,4.63
2023-04-11T04:40:09.905Z,5.00
2023-04-11T04:45:33.081Z,5.25
2023-04-11T04:50:48.962Z,4.38
2023-04-11T04:56:04.188Z,5.25
2023-04-11T05:01:22.132Z,4.10
2023-04-11T05:06:40.084Z,4.82
2023-04-11T05:11:55.391Z,3.90
2023-04-11T05:17:12.430Z,3.85
2023-04-11T05:22:28.160Z,3.85
2023-04-11T05:27:43.093Z,3.70
2023-04-11T05:33:01.918Z,3.97
2023-04-11T05:38:17.074Z,3.53
2023-04-11T08:06:36.934Z,2.42
2023-04-11T08:09:06.962Z,2.30
2023-04-11T08:11:35.810Z,1.95
2023-04-11T08:14:05.244Z,2.45
2023-04-11T08:16:34.867Z,2.42
2023-04-11T08:19:03.745Z,2.00
2023-04-11T08:21:32.924Z,2.17
2023-04-11T08:24:02.278Z,2.08
2023-04-11T08:26:32.542Z,2.30
2023-04-11T08:29:02.889Z,2.15
2023-04-11T08:31:33.202Z,2.25
2023-04-11T08:34:06.152Z,2.45
2023-04-11T08:36:37.335Z,1.95
2023-04-11T08:39:07.652Z,2.50
2023-04-11T08:41:37.357Z,2.15
2023-04-11T08:44:06.861Z,2.00
2023-04-11T08:46:36.444Z,1.70
2023-04-11T08:49:04.498Z,1.80
2023-04-11T08:51:33.197Z,1.92
2023-04-11T08:54:03.576Z,1.90
2023-04-11T08:56:33.558Z,2.10
2023-04-11T08:59:03.192Z,2.20
2023-04-11T09:01:33.436Z,2.03
2023-04-11T09:04:02.260Z,2.50
2023-04-11T09:06:32.509Z,2.28
2023-04-11T09:09:02.469Z,1.95
2023-04-11T09:11:31.487Z,2.20
2023-04-11T09:14:00.260Z,1.95
2023-04-11T09:16:30.573Z,2.00
2023-04-11T09:19:00.876Z,1.75
2023-04-11T09:21:31.231Z,2.17
2023-04-11T09:24:01.640Z,1.95
2023-04-11T09:26:31.771Z,1.67
2023-04-11T09:29:00.178Z,1.63
2023-04-11T09:31:29.250Z,1.80
2023-04-11T09:33:59.964Z,1.63
2023-04-11T09:36:30.441Z,1.98
2023-04-11T09:39:00.193Z,1.67
2023-04-11T09:41:29.507Z,1.55
2023-04-11T09:43:59.182Z,2.22
2023-04-11T09:46:28.696Z,1.45
2023-04-11T09:48:59.298Z,1.50
2023-04-11T09:51:36.369Z,1.60
2023-04-11T09:54:06.644Z,1.90
2023-04-11T09:56:37.093Z,1.60
2023-04-11T09:59:06.126Z,1.55
2023-04-11T10:01:36.737Z,1.85
2023-04-11T10:04:07.189Z,1.65
2023-04-11T10:06:37.474Z,1.75
2023-04-11T10:09:07.317Z,1.40
2023-04-11T10:11:39.754Z,1.63
2023-04-11T10:14:09.079Z,1.42
2023-04-11T10:16:39.481Z,1.70
2023-04-11T10:19:09.660Z,1.20
2023-04-11T10:21:39.387Z,1.55
2023-04-11T10:24:08.833Z,1.40
2023-04-11T10:26:38.233Z,1.20
2023-04-11T10:29:08.440Z,1.42
2023-04-11T10:31:38.776Z,1.45
2023-04-11T10:34:09.184Z,1.80
2023-04-11T10:36:39.462Z,1.50
2023-04-11T10:39:09.829Z,1.30
2023-04-11T10:41:39.680Z,1.40
2023-04-11T10:44:10.030Z,1.38
2023-04-11T10:46:40.117Z,1.45
2023-04-11T10:49:08.850Z,1.33
2023-04-11T10:51:39.528Z,1.20
2023-04-11T10:54:08.996Z,1.42
2023-04-11T10:56:38.545Z,1.40
2023-04-11T10:59:07.416Z,1.30
2023-04-11T11:01:42.914Z,1.55
2023-04-11T11:04:18.948Z,1.13
2023-04-11T11:06:56.680Z,1.00
2023-04-11T11:09:27.677Z,1.10
2023-04-11T11:11:58.015Z,1.05
2023-04-11T11:14:27.956Z,1.17
2023-04-11T11:16:56.772Z,1.10
2023-04-11T11:19:27.076Z,1.33
2023-04-11T11:21:57.294Z,1.20
2023-04-11T11:24:27.145Z,1.02
2023-04-11T11:26:56.482Z,1.08
2023-04-11T11:29:26.409Z,1.27
2023-04-11T11:31:55.406Z,1.42
2023-04-11T11:34:24.763Z,1.25
2023-04-11T11:36:55.182Z,1.13
2023-04-11T11:39:25.187Z,0.93
2023-04-11T11:41:53.772Z,1.45
2023-04-11T11:44:22.237Z,1.00
2023-04-11T11:46:50.850Z,1.00
2023-04-11T11:49:21.068Z,1.30
2023-04-11T11:51:51.294Z,1.35
2023-04-11T11:54:21.870Z,0.93
2023-04-11T11:56:51.696Z,1.23
2023-04-11T11:59:20.566Z,1.02
2023-04-11T12:01:50.004Z,0.95
2023-04-11T12:04:20.436Z,1.17
2023-04-11T12:06:50.814Z,1.20
2023-04-11T12:09:20.606Z,1.25
2023-04-11T12:11:49.963Z,1.40
2023-04-11T12:14:19.920Z,1.13
2023-04-11T12:16:49.170Z,1.02
2023-04-11T12:19:17.892Z,1.50
2023-04-11T12:21:48.195Z,1.08
2023-04-11T12:24:18.472Z,1.00
2023-04-11T12:27:05.551Z,1.00
2023-04-11T12:29:36.763Z,1.30
2023-04-11T12:32:05.415Z,1.20
2023-04-11T12:34:35.436Z,1.00
2023-04-11T12:37:03.714Z,1.60
2023-04-11T12:39:33.069Z,0.80
2023-04-11T12:42:03.332Z,0.82
2023-04-11T12:44:33.542Z,1.08
2023-04-11T12:47:03.892Z,0.98
2023-04-11T12:49:34.254Z,1.38
2023-04-11T12:52:04.114Z,0.95
2023-04-11T12:54:33.478Z,1.15
2023-04-11T12:57:03.365Z,1.30
2023-04-11T12:59:33.027Z,1.05
2023-04-11T13:02:03.574Z,0.95
2023-04-11T13:04:34.016Z,1.30
2023-04-11T13:07:04.532Z,1.15
2023-04-11T13:09:34.590Z,0.88
2023-04-11T13:12:02.514Z,0.90
2023-04-11T13:14:31.258Z,1.10
2023-04-11T13:17:00.640Z,1.05
2023-04-11T13:19:30.633Z,0.80
2023-04-11T13:21:59.399Z,1.15
2023-04-11T13:24:29.762Z,1.33
2023-04-11T13:27:00.056Z,1.70
2023-04-11T13:29:29.881Z,0.88
2023-04-11T13:31:59.357Z,1.00
2023-04-11T13:34:29.699Z,1.00
2023-04-11T13:37:00.077Z,1.13
2023-04-11T13:39:30.470Z,0.98
2023-04-11T13:42:00.711Z,0.98
2023-04-11T13:44:31.049Z,0.98
2023-04-11T13:47:00.555Z,1.27
2023-04-11T13:49:30.531Z,1.02
2023-04-11T13:52:00.043Z,1.20
2023-04-11T13:54:29.071Z,1.10
2023-04-11T13:56:59.593Z,1.60
2023-04-11T13:59:28.675Z,0.93
2023-04-11T14:01:58.091Z,1.38
2023-04-11T14:04:28.589Z,1.00
2023-04-11T14:06:57.824Z,0.95
2023-04-11T14:09:26.628Z,0.93
2023-04-11T14:11:57.109Z,1.00
2023-04-11T14:14:26.530Z,0.98
2023-04-11T14:16:57.013Z,0.70
2023-04-11T14:19:26.415Z,1.08
2023-04-11T14:21:56.704Z,1.15
2023-04-11T14:24:26.570Z,1.00
2023-04-11T14:26:55.659Z,0.80
2023-04-11T14:29:24.087Z,0.88
2023-04-11T14:31:52.453Z,0.88
2023-04-11T14:34:22.782Z,1.00
2023-04-11T14:36:53.049Z,1.00
2023-04-11T14:39:23.462Z,1.20
2023-04-11T14:41:53.281Z,1.05
2023-04-11T14:44:23.590Z,1.15
2023-04-11T14:46:53.937Z,1.00
2023-04-11T14:49:23.295Z,0.90
2023-04-11T14:51:54.160Z,1.10
2023-04-11T14:54:23.597Z,0.93
2023-04-11T14:56:52.907Z,1.00
2023-04-11T14:59:22.800Z,1.00
2023-04-11T15:01:52.566Z,1.17
2023-04-11T15:04:22.410Z,0.90
2023-04-11T15:06:51.459Z,0.90
2023-04-11T15:09:20.961Z,0.90
2023-04-11T15:11:51.331Z,1.45
2023-04-11T15:14:21.798Z,1.10
2023-04-11T15:16:51.696Z,1.00
2023-04-11T15:19:21.101Z,1.10
2023-04-11T15:21:51.180Z,0.93
2023-04-11T15:24:20.198Z,0.85
2023-04-11T15:26:50.501Z,0.70
2023-04-11T15:29:20.426Z,0.80
2023-04-11T15:31:50.840Z,1.00
2023-04-11T15:34:21.355Z,0.98
2023-04-11T15:36:50.344Z,0.70
2023-04-11T15:39:19.385Z,0.93
2023-04-11T15:41:48.043Z,0.70
2023-04-11T15:44:18.330Z,1.15
2023-04-11T15:46:49.548Z,1.08
2023-04-11T15:49:19.884Z,0.80
2023-04-11T15:51:50.279Z,0.90
2023-04-11T15:54:20.518Z,0.90
2023-04-11T15:56:50.899Z,0.90
2023-04-11T15:59:21.220Z,0.90
2023-04-11T16:01:51.170Z,1.00
2023-04-11T16:04:20.553Z,0.93
2023-04-11T16:06:50.980Z,0.95
2023-04-11T16:09:21.039Z,0.80
2023-04-11T16:11:49.772Z,0.90
2023-04-11T16:14:20.175Z,0.80
2023-04-11T16:16:48.813Z,0.90
2023-04-11T16:19:18.234Z,0.85
2023-04-11T16:21:48.508Z,1.02
2023-04-11T16:24:18.046Z,0.85
2023-04-11T16:26:46.784Z,1.10
2023-04-11T16:29:17.126Z,0.88
2023-04-11T16:31:47.661Z,0.90
2023-04-11T16:34:17.214Z,1.05
2023-04-11T16:36:47.767Z,0.90
2023-04-11T16:39:17.610Z,1.20
2023-04-11T16:41:46.482Z,0.90
2023-04-11T16:44:18.460Z,0.77
2023-04-11T16:46:48.162Z,0.95
2023-04-11T16:49:16.861Z,1.33
2023-04-11T16:51:47.007Z,1.00
2023-04-11T16:54:15.338Z,1.13
2023-04-11T16:56:44.740Z,1.00
2023-04-11T16:59:15.133Z,1.00
2023-04-11T17:01:43.874Z,1.00
2023-04-11T17:04:13.677Z,1.00
2023-04-11T17:06:42.540Z,0.90
2023-04-11T17:09:12.875Z,1.10
2023-04-11T17:11:43.178Z,1.52
2023-04-11T17:14:13.297Z,1.10
2023-04-11T17:16:45.364Z,1.15
2023-04-11T17:19:14.286Z,1.00
2023-04-11T17:21:43.661Z,1.08
2023-04-11T17:24:13.691Z,1.20
2023-04-11T17:26:41.996Z,1.77
2023-04-11T17:29:10.835Z,0.90
2023-04-11T17:31:40.237Z,1.20
2023-04-11T17:34:10.609Z,1.05
2023-04-11T17:36:40.932Z,1.42
